sensor_id;sensor_type;location;lat;lon;timestamp;pressure;altitude;pressure_sealevel;temperature;humidity
13015;BME280;6573;57.696;11.950;2022-12-10T00:01:48;100870.69;;;-1.49;100.00
13015;BME280;6573;57.696;11.950;2022-12-10T00:04:17;100870.63;;;-1.50;100.00
13015;BME280;6573;57.696;11.950;2022-12-10T00:06:46;100880.19;;;-1.48;100.00
13015;BME280;6573;57.696;11.950;2022-12-10T00:09:15;100878.56;;;-1.46;100.00
13015;BME280;6573;57.696;11.950;2022-12-10T00:11:44;100880.03;;;-1.51;100.00
13015;BME280;6573;57.696;11.950;2022-12-10T00:14:13;100880.19;;;-1.48;100.00
13015;BME280;6573;57.696;11.950;2022-12-10T00:16:41;100868.19;;;-1.47;100.00
13015;BME280;6573;57.696;11.950;2022-12-10T00:19:11;100885.34;;;-1.48;100.00
13015;BME280;6573;57.696;11.950;2022-12-10T00:21:40;100885.66;;;-1.42;100.00
13015;BME280;6573;57.696;11.950;2022-12-10T00:24:09;100888.88;;;-1.46;100.00
13015;BME280;6573;57.696;11.950;2022-12-10T00:26:38;100880.59;;;-1.39;100.00
13015;BME280;6573;57.696;11.950;2022-12-10T00:29:09;100874.94;;;-1.32;100.00
13015;BME280;6573;57.696;11.950;2022-12-10T00:31:39;100881.03;;;-1.29;100.00
13015;BME280;6573;57.696;11.950;2022-12-10T00:34:09;100885.25;;;-1.32;100.00
13015;BME280;6573;57.696;11.950;2022-12-10T00:36:40;100889.03;;;-1.43;100.00
13015;BME280;6573;57.696;11.950;2022-12-10T00:39:10;100884.97;;;-1.38;100.00
13015;BME280;6573;57.696;11.950;2022-12-10T00:41:39;100888.97;;;-1.25;100.00
13015;BME280;6573;57.696;11.950;2022-12-10T00:44:08;100893.09;;;-1.28;100.00
13015;BME280;6573;57.696;11.950;2022-12-10T00:46:36;100891.81;;;-1.38;100.00
13015;BME280;6573;57.696;11.950;2022-12-10T00:49:04;100876.38;;;-1.56;100.00
13015;BME280;6573;57.696;11.950;2022-12-10T00:51:33;100886.09;;;-1.50;100.00
13015;BME280;6573;57.696;11.950;2022-12-10T00:54:02;100895.22;;;-1.39;100.00
13015;BME280;6573;57.696;11.950;2022-12-10T00:56:32;100900.25;;;-1.42;100.00
13015;BME280;6573;57.696;11.950;2022-12-10T00:59:00;100896.97;;;-1.38;100.00
13015;BME280;6573;57.696;11.950;2022-12-10T01:01:31;100903.63;;;-1.43;100.00
13015;BME280;6573;57.696;11.950;2022-12-10T01:04:00;100906.41;;;-1.39;100.00
13015;BME280;6573;57.696;11.950;2022-12-10T01:06:32;100914.81;;;-1.43;100.00
13015;BME280;6573;57.696;11.950;2022-12-10T01:09:03;100921.16;;;-1.54;100.00
13015;BME280;6573;57.696;11.950;2022-12-10T01:11:35;100931.38;;;-1.57;100.00
13015;BME280;6573;57.696;11.950;2022-12-10T01:14:05;100920.91;;;-1.60;100.00
13015;BME280;6573;57.696;11.950;2022-12-10T01:16:34;100927.53;;;-1.65;100.00
13015;BME280;6573;57.696;11.950;2022-12-10T01:19:05;100929.88;;;-1.52;100.00
13015;BME280;6573;57.696;11.950;2022-12-10T01:21:33;100915.88;;;-1.57;100.00
13015;BME280;6573;57.696;11.950;2022-12-10T01:24:04;100931.94;;;-1.62;100.00
13015;BME280;6573;57.696;11.950;2022-12-10T01:26:34;100915.44;;;-1.66;100.00
13015;BME280;6573;57.696;11.950;2022-12-10T01:29:04;100923.84;;;-1.70;100.00
13015;BME280;6573;57.696;11.950;2022-12-10T01:31:34;100932.09;;;-1.77;100.00
13015;BME280;6573;57.696;11.950;2022-12-10T01:34:04;100928.44;;;-1.82;100.00
13015;BME280;6573;57.696;11.950;2022-12-10T01:36:34;100931.81;;;-1.83;100.00
13015;BME280;6573;57.696;11.950;2022-12-10T01:39:09;100935.94;;;-1.86;100.00
13015;BME280;6573;57.696;11.950;2022-12-10T01:41:40;100942.47;;;-1.75;100.00
13015;BME280;6573;57.696;11.950;2022-12-10T01:47:10;100948.59;;;-1.91;100.00
13015;BME280;6573;57.696;11.950;2022-12-10T01:49:39;100941.97;;;-1.86;100.00
13015;BME280;6573;57.696;11.950;2022-12-10T01:52:09;100948.75;;;-1.88;100.00
13015;BME280;6573;57.696;11.950;2022-12-10T01:54:42;100941.25;;;-2.01;100.00
13015;BME280;6573;57.696;11.950;2022-12-10T01:57:15;100919.38;;;-2.09;100.00
13015;BME280;6573;57.696;11.950;2022-12-10T01:59:46;100917.38;;;-1.97;100.00
13015;BME280;6573;57.696;11.950;2022-12-10T02:02:22;100905.16;;;-2.01;100.00
13015;BME280;6573;57.696;11.950;2022-12-10T02:05:00;100952.28;;;-1.86;100.00
13015;BME280;6573;57.696;11.950;2022-12-10T02:07:52;100958.47;;;-2.00;100.00
13015;BME280;6573;57.696;11.950;2022-12-10T02:10:34;100937.84;;;-2.00;100.00
13015;BME280;6573;57.696;11.950;2022-12-10T02:13:08;100947.72;;;-2.09;100.00
13015;BME280;6573;57.696;11.950;2022-12-10T02:15:41;100960.94;;;-2.19;100.00
13015;BME280;6573;57.696;11.950;2022-12-10T02:18:14;100948.41;;;-2.29;100.00
13015;BME280;6573;57.696;11.950;2022-12-10T02:20:49;100945.16;;;-2.25;100.00
13015;BME280;6573;57.696;11.950;2022-12-10T02:23:22;100950.03;;;-2.31;100.00
13015;BME280;6573;57.696;11.950;2022-12-10T02:25:57;100956.69;;;-2.35;100.00
13015;BME280;6573;57.696;11.950;2022-12-10T02:28:34;100951.47;;;-2.36;100.00
13015;BME280;6573;57.696;11.950;2022-12-10T02:31:07;100955.91;;;-2.34;100.00
13015;BME280;6573;57.696;11.950;2022-12-10T02:33:39;100956.63;;;-2.36;100.00
13015;BME280;6573;57.696;11.950;2022-12-10T02:36:12;100944.56;;;-2.37;100.00
13015;BME280;6573;57.696;11.950;2022-12-10T02:38:43;100938.91;;;-2.30;100.00
13015;BME280;6573;57.696;11.950;2022-12-10T02:41:14;100944.25;;;-2.43;100.00
13015;BME280;6573;57.696;11.950;2022-12-10T02:43:45;100924.44;;;-2.44;100.00
13015;BME280;6573;57.696;11.950;2022-12-10T02:46:16;100960.16;;;-2.34;100.00
13015;BME280;6573;57.696;11.950;2022-12-10T02:48:45;100965.50;;;-2.47;100.00
13015;BME280;6573;57.696;11.950;2022-12-10T02:51:14;100964.69;;;-2.46;100.00
13015;BME280;6573;57.696;11.950;2022-12-10T02:53:43;100962.75;;;-2.50;100.00
13015;BME280;6573;57.696;11.950;2022-12-10T02:56:16;100960.69;;;-2.57;100.00
13015;BME280;6573;57.696;11.950;2022-12-10T02:58:57;100963.44;;;-2.71;100.00
13015;BME280;6573;57.696;11.950;2022-12-10T03:01:37;100951.38;;;-2.72;100.00
13015;BME280;6573;57.696;11.950;2022-12-10T03:04:14;100956.84;;;-2.66;100.00
13015;BME280;6573;57.696;11.950;2022-12-10T03:06:48;100959.25;;;-2.69;100.00
13015;BME280;6573;57.696;11.950;2022-12-10T03:09:22;100962.13;;;-2.63;100.00
13015;BME280;6573;57.696;11.950;2022-12-10T03:11:56;100982.72;;;-2.63;100.00
13015;BME280;6573;57.696;11.950;2022-12-10T03:14:29;100969.78;;;-2.64;100.00
13015;BME280;6573;57.696;11.950;2022-12-10T03:17:00;100963.91;;;-2.62;100.00
13015;BME280;6573;57.696;11.950;2022-12-10T03:19:33;100974.16;;;-2.63;100.00
13015;BME280;6573;57.696;11.950;2022-12-10T03:22:04;100969.06;;;-2.62;100.00
13015;BME280;6573;57.696;11.950;2022-12-10T03:24:35;100972.59;;;-2.59;100.00
13015;BME280;6573;57.696;11.950;2022-12-10T03:27:07;100961.66;;;-2.72;100.00
13015;BME280;6573;57.696;11.950;2022-12-10T03:29:40;100965.75;;;-2.59;100.00
13015;BME280;6573;57.696;11.950;2022-12-10T03:32:13;100959.72;;;-2.59;100.00
13015;BME280;6573;57.696;11.950;2022-12-10T03:34:43;100943.41;;;-2.76;100.00
13015;BME280;6573;57.696;11.950;2022-12-10T03:37:13;100965.69;;;-2.60;100.00
13015;BME280;6573;57.696;11.950;2022-12-10T03:39:42;100966.47;;;-2.62;100.00
13015;BME280;6573;57.696;11.950;2022-12-10T03:42:11;100952.66;;;-2.64;100.00
13015;BME280;6573;57.696;11.950;2022-12-10T03:44:39;100954.28;;;-2.66;100.00
13015;BME280;6573;57.696;11.950;2022-12-10T03:47:12;100958.13;;;-2.74;100.00
13015;BME280;6573;57.696;11.950;2022-12-10T03:49:42;100950.72;;;-2.68;100.00
13015;BME280;6573;57.696;11.950;2022-12-10T03:52:11;100955.41;;;-2.60;100.00
13015;BME280;6573;57.696;11.950;2022-12-10T03:54:40;100956.97;;;-2.63;100.00
13015;BME280;6573;57.696;11.950;2022-12-10T03:57:09;100960.53;;;-2.60;100.00
13015;BME280;6573;57.696;11.950;2022-12-10T03:59:37;100960.03;;;-2.53;100.00
13015;BME280;6573;57.696;11.950;2022-12-10T04:02:06;100957.31;;;-2.56;100.00
13015;BME280;6573;57.696;11.950;2022-12-10T04:04:36;100969.22;;;-2.58;100.00
13015;BME280;6573;57.696;11.950;2022-12-10T04:07:05;100968.34;;;-2.59;100.00
13015;BME280;6573;57.696;11.950;2022-12-10T04:09:36;100979.53;;;-2.58;100.00
13015;BME280;6573;57.696;11.950;2022-12-10T04:12:05;100974.66;;;-2.52;100.00
13015;BME280;6573;57.696;11.950;2022-12-10T04:14:33;100975.09;;;-2.61;100.00
13015;BME280;6573;57.696;11.950;2022-12-10T04:17:19;100969.78;;;-2.64;100.00
13015;BME280;6573;57.696;11.950;2022-12-10T04:19:49;100970.28;;;-2.71;100.00
13015;BME280;6573;57.696;11.950;2022-12-10T04:22:17;100968.72;;;-2.68;100.00
13015;BME280;6573;57.696;11.950;2022-12-10T04:25:03;100976.00;;;-2.60;100.00
13015;BME280;6573;57.696;11.950;2022-12-10T04:27:49;100974.03;;;-2.65;100.00
13015;BME280;6573;57.696;11.950;2022-12-10T04:30:18;100970.97;;;-2.57;100.00
13015;BME280;6573;57.696;11.950;2022-12-10T04:32:46;100969.94;;;-2.61;100.00
13015;BME280;6573;57.696;11.950;2022-12-10T04:35:16;100970.97;;;-2.57;100.00
13015;BME280;6573;57.696;11.950;2022-12-10T04:37:45;100976.28;;;-2.54;100.00
13015;BME280;6573;57.696;11.950;2022-12-10T04:40:13;100969.53;;;-2.52;100.00
13015;BME280;6573;57.696;11.950;2022-12-10T04:42:41;100981.44;;;-2.54;100.00
13015;BME280;6573;57.696;11.950;2022-12-10T04:45:09;100959.06;;;-2.55;100.00
13015;BME280;6573;57.696;11.950;2022-12-10T04:47:38;100974.50;;;-2.55;100.00
13015;BME280;6573;57.696;11.950;2022-12-10T04:50:06;100989.00;;;-2.57;100.00
13015;BME280;6573;57.696;11.950;2022-12-10T04:52:40;100960.19;;;-2.83;100.00
13015;BME280;6573;57.696;11.950;2022-12-10T04:55:08;100982.44;;;-2.69;100.00
13015;BME280;6573;57.696;11.950;2022-12-10T04:57:37;100980.66;;;-2.70;100.00
13015;BME280;6573;57.696;11.950;2022-12-10T05:00:09;100980.34;;;-2.76;100.00
13015;BME280;6573;57.696;11.950;2022-12-10T05:02:38;100982.72;;;-2.63;100.00
13015;BME280;6573;57.696;11.950;2022-12-10T05:05:07;100991.56;;;-2.57;100.00
13015;BME280;6573;57.696;11.950;2022-12-10T05:07:37;100962.56;;;-2.71;100.00
13015;BME280;6573;57.696;11.950;2022-12-10T05:10:08;100992.63;;;-2.54;100.00
13015;BME280;6573;57.696;11.950;2022-12-10T05:12:37;100981.59;;;-2.51;100.00
13015;BME280;6573;57.696;11.950;2022-12-10T05:15:06;100975.09;;;-2.61;100.00
13015;BME280;6573;57.696;11.950;2022-12-10T05:17:37;100991.09;;;-2.67;100.00
13015;BME280;6573;57.696;11.950;2022-12-10T05:20:07;100986.13;;;-2.64;100.00
13015;BME280;6573;57.696;11.950;2022-12-10T05:22:36;100994.47;;;-2.68;100.00
13015;BME280;6573;57.696;11.950;2022-12-10T05:25:23;100994.63;;;-2.65;100.00
13015;BME280;6573;57.696;11.950;2022-12-10T05:27:51;100993.19;;;-2.59;100.00
13015;BME280;6573;57.696;11.950;2022-12-10T05:30:19;101001.81;;;-2.59;100.00
13015;BME280;6573;57.696;11.950;2022-12-10T05:32:48;100996.59;;;-2.60;100.00
13015;BME280;6573;57.696;11.950;2022-12-10T05:35:16;100988.94;;;-2.59;100.00
13015;BME280;6573;57.696;11.950;2022-12-10T05:37:44;100986.13;;;-2.64;100.00
13015;BME280;6573;57.696;11.950;2022-12-10T05:40:13;100989.81;;;-2.58;100.00
13015;BME280;6573;57.696;11.950;2022-12-10T05:42:43;100993.53;;;-2.53;100.00
13015;BME280;6573;57.696;11.950;2022-12-10T05:45:11;101000.41;;;-2.52;100.00
13015;BME280;6573;57.696;11.950;2022-12-10T05:47:39;101001.09;;;-2.56;100.00
13015;BME280;6573;57.696;11.950;2022-12-10T05:50:08;100996.41;;;-2.64;100.00
13015;BME280;6573;57.696;11.950;2022-12-10T05:52:37;100987.25;;;-2.75;100.00
13015;BME280;6573;57.696;11.950;2022-12-10T05:55:06;100999.50;;;-2.71;100.00
13015;BME280;6573;57.696;11.950;2022-12-10T05:57:36;101007.66;;;-2.78;100.00
13015;BME280;6573;57.696;11.950;2022-12-10T06:00:06;101000.59;;;-2.82;100.00
13015;BME280;6573;57.696;11.950;2022-12-10T06:02:35;100999.16;;;-2.77;100.00
13015;BME280;6573;57.696;11.950;2022-12-10T06:05:04;101005.69;;;-2.83;100.00
13015;BME280;6573;57.696;11.950;2022-12-10T06:07:32;101000.59;;;-2.82;100.00
13015;BME280;6573;57.696;11.950;2022-12-10T06:10:01;101004.75;;;-3.00;100.00
13015;BME280;6573;57.696;11.950;2022-12-10T06:12:29;101008.47;;;-2.95;100.00
13015;BME280;6573;57.696;11.950;2022-12-10T06:14:57;100978.72;;;-3.06;100.00
13015;BME280;6573;57.696;11.950;2022-12-10T06:17:27;101010.06;;;-2.97;100.00
13015;BME280;6573;57.696;11.950;2022-12-10T06:19:57;101007.00;;;-2.90;100.00
13015;BME280;6573;57.696;11.950;2022-12-10T06:22:26;101020.69;;;-2.91;100.00
13015;BME280;6573;57.696;11.950;2022-12-10T06:24:54;100993.44;;;-3.03;100.00
13015;BME280;6573;57.696;11.950;2022-12-10T06:27:23;101015.38;;;-2.94;100.00
13015;BME280;6573;57.696;11.950;2022-12-10T06:29:51;101010.25;;;-2.94;100.00
13015;BME280;6573;57.696;11.950;2022-12-10T06:32:19;101021.66;;;-2.89;100.00
13015;BME280;6573;57.696;11.950;2022-12-10T06:34:49;101019.03;;;-2.90;100.00
13015;BME280;6573;57.696;11.950;2022-12-10T06:37:18;101026.16;;;-2.85;100.00
13015;BME280;6573;57.696;11.950;2022-12-10T06:39:46;101024.25;;;-2.89;100.00
13015;BME280;6573;57.696;11.950;2022-12-10T06:42:15;101027.78;;;-2.87;100.00
13015;BME280;6573;57.696;11.950;2022-12-10T06:44:43;101036.28;;;-2.88;100.00
13015;BME280;6573;57.696;11.950;2022-12-10T06:47:11;101024.06;;;-2.92;100.00
13015;BME280;6573;57.696;11.950;2022-12-10T06:49:40;101029.69;;;-2.83;100.00
13015;BME280;6573;57.696;11.950;2022-12-10T06:52:10;101040.00;;;-2.83;100.00
13015;BME280;6573;57.696;11.950;2022-12-10T06:54:38;101048.72;;;-2.81;100.00
13015;BME280;6573;57.696;11.950;2022-12-10T06:57:07;101028.72;;;-3.01;100.00
13015;BME280;6573;57.696;11.950;2022-12-10T06:59:35;101040.78;;;-3.00;100.00
13015;BME280;6573;57.696;11.950;2022-12-10T07:02:04;101041.78;;;-2.98;100.00
13015;BME280;6573;57.696;11.950;2022-12-10T07:04:33;101049.31;;;-3.01;100.00
13015;BME280;6573;57.696;11.950;2022-12-10T07:07:01;101042.72;;;-2.96;100.00
13015;BME280;6573;57.696;11.950;2022-12-10T07:09:36;101044.28;;;-2.83;100.00
13015;BME280;6573;57.696;11.950;2022-12-10T07:12:05;101054.88;;;-2.77;100.00
13015;BME280;6573;57.696;11.950;2022-12-10T07:14:34;101049.50;;;-2.98;100.00
13015;BME280;6573;57.696;11.950;2022-12-10T07:17:02;101049.81;;;-2.92;100.00
13015;BME280;6573;57.696;11.950;2022-12-10T07:19:32;101055.13;;;-2.89;100.00
13015;BME280;6573;57.696;11.950;2022-12-10T07:22:01;101060.09;;;-2.92;100.00
13015;BME280;6573;57.696;11.950;2022-12-10T07:24:29;101062.59;;;-2.93;100.00
13015;BME280;6573;57.696;11.950;2022-12-10T07:26:59;101061.72;;;-2.94;100.00
13015;BME280;6573;57.696;11.950;2022-12-10T07:29:27;101066.69;;;-2.97;100.00
13015;BME280;6573;57.696;11.950;2022-12-10T07:31:55;101058.16;;;-2.96;100.00
13015;BME280;6573;57.696;11.950;2022-12-10T07:34:23;101059.44;;;-3.04;100.00
13015;BME280;6573;57.696;11.950;2022-12-10T07:36:52;101057.16;;;-3.14;100.00
13015;BME280;6573;57.696;11.950;2022-12-10T07:39:21;101070.19;;;-3.11;100.00
13015;BME280;6573;57.696;11.950;2022-12-10T07:41:50;101046.38;;;-3.23;100.00
13015;BME280;6573;57.696;11.950;2022-12-10T07:44:22;101060.66;;;-3.28;100.00
13015;BME280;6573;57.696;11.950;2022-12-10T07:46:52;101058.09;;;-3.28;100.00
13015;BME280;6573;57.696;11.950;2022-12-10T07:49:20;101075.63;;;-3.21;100.00
13015;BME280;6573;57.696;11.950;2022-12-10T07:51:49;101072.41;;;-3.17;100.00
13015;BME280;6573;57.696;11.950;2022-12-10T07:54:20;101079.94;;;-3.20;100.00
13015;BME280;6573;57.696;11.950;2022-12-10T07:56:48;101063.06;;;-3.31;100.00
13015;BME280;6573;57.696;11.950;2022-12-10T07:59:17;101074.03;;;-3.19;100.00
13015;BME280;6573;57.696;11.950;2022-12-10T08:01:47;101087.66;;;-3.20;100.00
13015;BME280;6573;57.696;11.950;2022-12-10T08:04:16;101087.53;;;-3.23;100.00
13015;BME280;6573;57.696;11.950;2022-12-10T08:06:44;101087.16;;;-3.29;100.00
13015;BME280;6573;57.696;11.950;2022-12-10T08:09:12;101084.53;;;-3.31;100.00
13015;BME280;6573;57.696;11.950;2022-12-10T08:11:41;101087.63;;;-3.36;100.00
13015;BME280;6573;57.696;11.950;2022-12-10T08:14:09;101085.41;;;-3.30;100.00
13015;BME280;6573;57.696;11.950;2022-12-10T08:16:37;101081.84;;;-3.32;100.00
13015;BME280;6573;57.696;11.950;2022-12-10T08:19:08;101096.31;;;-3.34;100.00
13015;BME280;6573;57.696;11.950;2022-12-10T08:21:42;101100.13;;;-3.42;100.00
13015;BME280;6573;57.696;11.950;2022-12-10T08:24:10;101097.47;;;-3.44;100.00
13015;BME280;6573;57.696;11.950;2022-12-10T08:26:38;101095.53;;;-3.33;100.00
13015;BME280;6573;57.696;11.950;2022-12-10T08:29:07;101107.69;;;-3.45;100.00
13015;BME280;6573;57.696;11.950;2022-12-10T08:31:35;101111.81;;;-3.47;100.00
13015;BME280;6573;57.696;11.950;2022-12-10T08:34:04;101087.53;;;-3.52;100.00
13015;BME280;6573;57.696;11.950;2022-12-10T08:36:36;101119.63;;;-3.31;100.00
13015;BME280;6573;57.696;11.950;2022-12-10T08:39:04;101108.97;;;-3.37;100.00
13015;BME280;6573;57.696;11.950;2022-12-10T08:41:32;101107.22;;;-3.38;100.00
13015;BME280;6573;57.696;11.950;2022-12-10T08:44:01;101119.84;;;-3.43;100.00
13015;BME280;6573;57.696;11.950;2022-12-10T08:46:29;101115.91;;;-3.36;100.00
13015;BME280;6573;57.696;11.950;2022-12-10T08:48:58;101114.06;;;-3.39;100.00
13015;BME280;6573;57.696;11.950;2022-12-10T08:51:26;101127.25;;;-3.47;100.00
13015;BME280;6573;57.696;11.950;2022-12-10T08:53:56;101124.28;;;-3.55;100.00
13015;BME280;6573;57.696;11.950;2022-12-10T08:56:25;101120.19;;;-3.51;100.00
13015;BME280;6573;57.696;11.950;2022-12-10T08:58:53;101126.41;;;-3.48;100.00
13015;BME280;6573;57.696;11.950;2022-12-10T09:01:22;101137.38;;;-3.50;100.00
13015;BME280;6573;57.696;11.950;2022-12-10T09:03:51;101113.09;;;-3.55;100.00
13015;BME280;6573;57.696;11.950;2022-12-10T09:06:22;101117.53;;;-3.53;100.00
13015;BME280;6573;57.696;11.950;2022-12-10T09:08:52;101131.69;;;-3.59;100.00
13015;BME280;6573;57.696;11.950;2022-12-10T09:11:24;101135.59;;;-3.51;100.00
13015;BME280;6573;57.696;11.950;2022-12-10T09:13:53;101135.25;;;-3.57;100.00
13015;BME280;6573;57.696;11.950;2022-12-10T09:16:27;101140.41;;;-3.57;100.00
13015;BME280;6573;57.696;11.950;2022-12-10T09:18:56;101133.47;;;-3.44;100.00
13015;BME280;6573;57.696;11.950;2022-12-10T09:21:24;101140.66;;;-3.38;100.00
13015;BME280;6573;57.696;11.950;2022-12-10T09:23:52;101139.25;;;-3.33;100.00
13015;BME280;6573;57.696;11.950;2022-12-10T09:26:22;101133.63;;;-3.26;100.00
13015;BME280;6573;57.696;11.950;2022-12-10T09:28:51;101140.22;;;-3.31;100.00
13015;BME280;6573;57.696;11.950;2022-12-10T09:31:20;101144.91;;;-3.24;100.00
13015;BME280;6573;57.696;11.950;2022-12-10T09:33:50;101144.63;;;-3.14;100.00
13015;BME280;6573;57.696;11.950;2022-12-10T09:36:20;101149.75;;;-3.14;100.00
13015;BME280;6573;57.696;11.950;2022-12-10T09:38:54;101144.63;;;-3.14;100.00
13015;BME280;6573;57.696;11.950;2022-12-10T09:41:39;101140.88;;;-3.04;100.00
13015;BME280;6573;57.696;11.950;2022-12-10T09:44:17;101150.63;;;-2.99;100.00
13015;BME280;6573;57.696;11.950;2022-12-10T09:46:52;101140.69;;;-2.93;100.00
13015;BME280;6573;57.696;11.950;2022-12-10T09:49:28;101151.13;;;-2.90;100.00
13015;BME280;6573;57.696;11.950;2022-12-10T09:52:00;101148.41;;;-2.93;100.00
13015;BME280;6573;57.696;11.950;2022-12-10T09:54:32;101153.09;;;-2.86;100.00
13015;BME280;6573;57.696;11.950;2022-12-10T09:57:04;101154.97;;;-2.83;100.00
13015;BME280;6573;57.696;11.950;2022-12-10T09:59:38;101136.66;;;-2.88;100.00
13015;BME280;6573;57.696;11.950;2022-12-10T10:02:20;101159.81;;;-2.73;100.00
13015;BME280;6573;57.696;11.950;2022-12-10T10:04:49;101159.88;;;-2.72;100.00
13015;BME280;6573;57.696;11.950;2022-12-10T10:07:20;101153.31;;;-2.67;100.00
13015;BME280;6573;57.696;11.950;2022-12-10T10:09:50;101152.84;;;-2.59;100.00
13015;BME280;6573;57.696;11.950;2022-12-10T10:12:20;101166.84;;;-2.54;100.00
13015;BME280;6573;57.696;11.950;2022-12-10T10:14:49;101167.03;;;-2.51;100.00
13015;BME280;6573;57.696;11.950;2022-12-10T10:17:20;101156.38;;;-2.57;100.00
13015;BME280;6573;57.696;11.950;2022-12-10T10:19:57;101157.03;;;-2.45;100.00
13015;BME280;6573;57.696;11.950;2022-12-10T10:22:25;101152.59;;;-2.48;100.00
13015;BME280;6573;57.696;11.950;2022-12-10T10:24:54;101165.91;;;-2.40;100.00
13015;BME280;6573;57.696;11.950;2022-12-10T10:27:26;101155.94;;;-2.34;100.00
13015;BME280;6573;57.696;11.950;2022-12-10T10:29:57;101156.09;;;-2.31;100.00
13015;BME280;6573;57.696;11.950;2022-12-10T10:32:28;101159.00;;;-2.41;100.00
13015;BME280;6573;57.696;11.950;2022-12-10T10:35:21;101175.09;;;-2.29;100.00
13015;BME280;6573;57.696;11.950;2022-12-10T10:37:50;101171.09;;;-2.24;100.00
13015;BME280;6573;57.696;11.950;2022-12-10T10:40:25;101178.97;;;-2.21;100.00
13015;BME280;6573;57.696;11.950;2022-12-10T10:42:57;101182.53;;;-2.19;100.00
13015;BME280;6573;57.696;11.950;2022-12-10T10:45:38;101172.84;;;-2.23;100.00
13015;BME280;6573;57.696;11.950;2022-12-10T10:48:11;101185.34;;;-2.15;100.00
13015;BME280;6573;57.696;11.950;2022-12-10T10:50:42;101188.31;;;-2.07;100.00
13015;BME280;6573;57.696;11.950;2022-12-10T10:53:31;101183.97;;;-2.24;100.00
13015;BME280;6573;57.696;11.950;2022-12-10T10:56:06;101161.56;;;-2.25;100.00
13015;BME280;6573;57.696;11.950;2022-12-10T10:58:46;101182.69;;;-2.16;100.00
13015;BME280;6573;57.696;11.950;2022-12-10T11:01:15;101179.81;;;-2.06;100.00
13015;BME280;6573;57.696;11.950;2022-12-10T11:03:47;101179.81;;;-2.06;100.00
13015;BME280;6573;57.696;11.950;2022-12-10T11:06:16;101165.63;;;-2.14;100.00
13015;BME280;6573;57.696;11.950;2022-12-10T11:08:46;101181.38;;;-2.08;100.00
13015;BME280;6573;57.696;11.950;2022-12-10T11:11:19;101186.09;;;-2.01;100.00
13015;BME280;6573;57.696;11.950;2022-12-10T11:13:49;101180.59;;;-1.91;100.00
13015;BME280;6573;57.696;11.950;2022-12-10T11:16:20;101175.59;;;-1.88;100.00
13015;BME280;6573;57.696;11.950;2022-12-10T11:18:55;101173.66;;;-1.92;100.00
13015;BME280;6573;57.696;11.950;2022-12-10T11:21:24;101183.44;;;-1.86;100.00
13015;BME280;6573;57.696;11.950;2022-12-10T11:23:53;101179.13;;;-1.86;100.00
13015;BME280;6573;57.696;11.950;2022-12-10T11:26:35;101175.94;;;-1.82;100.00
13015;BME280;6573;57.696;11.950;2022-12-10T11:29:36;101158.84;;;-1.80;100.00
13015;BME280;6573;57.696;11.950;2022-12-10T11:32:20;101172.03;;;-1.58;100.00
13015;BME280;6573;57.696;11.950;2022-12-10T11:35:01;101163.31;;;-1.60;100.00
13015;BME280;6573;57.696;11.950;2022-12-10T11:37:36;101167.31;;;-1.49;100.00
13015;BME280;6573;57.696;11.950;2022-12-10T11:40:14;101168.78;;;-1.54;100.00
13015;BME280;6573;57.696;11.950;2022-12-10T11:42:54;101173.66;;;-1.60;100.00
13015;BME280;6573;57.696;11.950;2022-12-10T11:45:38;101173.03;;;-1.72;100.00
13015;BME280;6573;57.696;11.950;2022-12-10T11:48:16;101176.88;;;-1.64;100.00
13015;BME280;6573;57.696;11.950;2022-12-10T11:50:50;101161.25;;;-1.67;100.00
13015;BME280;6573;57.696;11.950;2022-12-10T11:53:36;101174.22;;;-1.65;100.00
13015;BME280;6573;57.696;11.950;2022-12-10T11:56:12;101164.22;;;-1.59;100.00
13015;BME280;6573;57.696;11.950;2022-12-10T11:58:53;101165.97;;;-1.58;100.00
13015;BME280;6573;57.696;11.950;2022-12-10T12:01:41;101170.91;;;-1.63;100.00
13015;BME280;6573;57.696;11.950;2022-12-10T12:04:24;101171.72;;;-1.64;100.00
13015;BME280;6573;57.696;11.950;2022-12-10T12:07:19;101161.25;;;-1.67;100.00
13015;BME280;6573;57.696;11.950;2022-12-10T12:09:57;101161.41;;;-1.64;100.00
13015;BME280;6573;57.696;11.950;2022-12-10T12:12:38;101159.31;;;-1.71;100.00
13015;BME280;6573;57.696;11.950;2022-12-10T12:15:16;101155.59;;;-1.76;100.00
13015;BME280;6573;57.696;11.950;2022-12-10T12:17:53;101152.38;;;-1.72;100.00
13015;BME280;6573;57.696;11.950;2022-12-10T12:20:28;101156.97;;;-1.66;100.00
13015;BME280;6573;57.696;11.950;2022-12-10T12:23:04;101151.94;;;-1.63;100.00
13015;BME280;6573;57.696;11.950;2022-12-10T12:25:36;101145.94;;;-1.64;100.00
13015;BME280;6573;57.696;11.950;2022-12-10T12:28:11;101156.09;;;-1.67;100.00
13015;BME280;6573;57.696;11.950;2022-12-10T12:30:43;101147.53;;;-1.66;100.00
13015;BME280;6573;57.696;11.950;2022-12-10T12:33:18;101147.84;;;-1.60;100.00
13015;BME280;6573;57.696;11.950;2022-12-10T12:35:55;101149.47;;;-1.62;100.00
13015;BME280;6573;57.696;11.950;2022-12-10T12:38:29;101152.13;;;-1.60;100.00
13015;BME280;6573;57.696;11.950;2022-12-10T12:41:02;101149.31;;;-1.65;100.00
13015;BME280;6573;57.696;11.950;2022-12-10T12:43:39;101147.84;;;-1.60;100.00
13015;BME280;6573;57.696;11.950;2022-12-10T12:46:13;101150.25;;;-1.47;100.00
13015;BME280;6573;57.696;11.950;2022-12-10T12:48:51;101128.97;;;-1.59;100.00
13015;BME280;6573;57.696;11.950;2022-12-10T12:51:26;101162.41;;;-1.44;100.00
13015;BME280;6573;57.696;11.950;2022-12-10T12:53:57;101157.19;;;-1.28;100.00
13015;BME280;6573;57.696;11.950;2022-12-10T12:56:38;101152.88;;;-1.29;100.00
13015;BME280;6573;57.696;11.950;2022-12-10T12:59:17;101151.47;;;-1.22;100.00
13015;BME280;6573;57.696;11.950;2022-12-10T13:01:51;101153.09;;;-1.24;100.00
13015;BME280;6573;57.696;11.950;2022-12-10T13:04:25;101151.31;;;-1.25;100.00
13015;BME280;6573;57.696;11.950;2022-12-10T13:13:06;101143.75;;;-1.39;100.00